createdAt,value
2023-03-31T00:02:35.867Z,2.2
2023-03-31T00:08:19.939Z,2.2
2023-03-31T00:14:04.043Z,2.1
2023-03-31T00:19:48.095Z,2.2
2023-03-31T00:25:32.142Z,2.4
2023-03-31T00:31:16.283Z,2.3
2023-03-31T00:37:00.343Z,2.1
2023-03-31T00:42:46.396Z,2.1
2023-03-31T00:48:30.398Z,2.3
2023-03-31T00:54:14.477Z,2.1
2023-03-31T01:00:00.728Z,1.9
2023-03-31T01:05:46.681Z,1.8
2023-03-31T01:11:32.482Z,2.4
2023-03-31T01:17:16.774Z,2.1
2023-03-31T01:23:16.758Z,2
2023-03-31T01:29:04.389Z,1.5
2023-03-31T01:35:06.251Z,1.8
2023-03-31T01:41:04.105Z,1.9
2023-03-31T01:46:52.460Z,1.9
2023-03-31T01:52:40.394Z,1.5
2023-03-31T01:58:26.742Z,1.4
2023-03-31T02:04:15.163Z,1.5
2023-03-31T02:10:01.960Z,1.1
2023-03-31T02:15:49.494Z,1.2
2023-03-31T02:21:34.701Z,1.5
2023-03-31T02:27:21.137Z,1.3
2023-03-31T02:33:06.431Z,1.3
2023-03-31T02:38:53.485Z,1.4
2023-03-31T02:44:37.800Z,1.3
2023-03-31T02:50:26.761Z,1.3
2023-03-31T02:56:22.600Z,1.2
2023-03-31T03:02:11.046Z,1.1
2023-03-31T03:07:58.972Z,1.1
2023-03-31T03:13:47.817Z,1.1
2023-03-31T03:19:31.847Z,1.6
2023-03-31T03:25:16.650Z,1.2
2023-03-31T03:31:01.672Z,1
2023-03-31T03:36:45.703Z,1.2
2023-03-31T03:42:34.717Z,1.4
2023-03-31T03:48:18.730Z,1.4
2023-03-31T03:54:02.835Z,2
2023-03-31T03:59:46.882Z,1.2
2023-03-31T04:05:31.162Z,1.4
2023-03-31T04:11:20.948Z,1.4
2023-03-31T04:17:05.174Z,1.4
2023-03-31T04:22:49.751Z,1.5
2023-03-31T04:28:33.777Z,1.4
2023-03-31T04:34:18.504Z,1.3
2023-03-31T04:40:03.679Z,1.4
2023-03-31T04:45:48.065Z,1.6
2023-03-31T04:51:32.239Z,1.3
2023-03-31T04:57:16.337Z,1.2
2023-03-31T05:03:01.768Z,1.5
2023-03-31T05:08:46.272Z,1.4
2023-03-31T05:14:30.543Z,1.3
2023-03-31T05:20:15.725Z,1.4
2023-03-31T05:25:59.770Z,1.3
2023-03-31T05:31:44.231Z,1.3
2023-03-31T05:37:28.884Z,1.5
2023-03-31T05:43:28.616Z,1.6
2023-03-31T05:49:12.905Z,1.5
2023-03-31T05:54:57.155Z,1.5
2023-03-31T06:00:41.426Z,1.7
2023-03-31T06:06:26.416Z,1.7
2023-03-31T06:12:11.066Z,7.3
2023-03-31T06:17:55.285Z,4.3
2023-03-31T06:23:39.802Z,3.7
2023-03-31T06:29:24.162Z,3.4
2023-03-31T06:35:08.987Z,3
2023-03-31T06:40:52.975Z,3.2
2023-03-31T06:46:37.258Z,3.2
2023-03-31T06:52:21.418Z,2.8
2023-03-31T06:58:05.470Z,3.1
2023-03-31T07:03:49.593Z,2.5
2023-03-31T07:09:34.777Z,2.9
2023-03-31T07:15:19.029Z,2.8
2023-03-31T07:21:03.302Z,2.5
2023-03-31T07:26:51.962Z,2.5
2023-03-31T07:32:36.019Z,2.2
2023-03-31T07:38:20.018Z,2.6
2023-03-31T07:44:08.054Z,2.8
2023-03-31T07:49:51.890Z,2.4
2023-03-31T07:55:36.865Z,2.4
2023-03-31T08:01:22.445Z,2.5
2023-03-31T08:07:07.015Z,2.2
2023-03-31T08:12:50.926Z,2.5
2023-03-31T08:18:35.070Z,2.3
2023-03-31T08:24:19.022Z,2.2
2023-03-31T08:30:03.040Z,2
2023-03-31T08:35:48.214Z,2.4
2023-03-31T08:41:36.646Z,2.1
2023-03-31T08:47:23.724Z,2.1
2023-03-31T08:53:09.328Z,1.9
2023-03-31T08:58:53.981Z,1.9
2023-03-31T09:04:49.526Z,2.2
2023-03-31T09:10:44.950Z,2.3
2023-03-31T09:16:32.145Z,2.1
2023-03-31T09:22:20.111Z,2
2023-03-31T09:28:05.727Z,1.8
2023-03-31T09:33:53.075Z,2.1
2023-03-31T09:39:37.273Z,1.9
2023-03-31T09:45:22.327Z,2
2023-03-31T09:51:08.047Z,2.1
2023-03-31T09:56:53.352Z,2.6
2023-03-31T10:02:41.956Z,2.6
2023-03-31T10:08:28.547Z,2.3
2023-03-31T10:14:15.349Z,2.4
2023-03-31T10:20:00.491Z,2
2023-03-31T10:25:45.111Z,2.4
2023-03-31T10:31:35.497Z,2.3
2023-03-31T10:37:20.701Z,2.4
2023-03-31T10:43:06.709Z,2.2
2023-03-31T10:48:50.671Z,2.5
2023-03-31T10:54:34.819Z,2.2
2023-03-31T11:00:24.737Z,2.2
2023-03-31T11:06:11.829Z,2
2023-03-31T11:12:00.521Z,2.1
2023-03-31T11:17:50.955Z,2.6
2023-03-31T11:23:40.371Z,2.1
2023-03-31T11:29:31.145Z,1.8
2023-03-31T11:35:29.655Z,1.7
2023-03-31T11:41:15.985Z,2.2
2023-03-31T11:47:02.494Z,1.8
2023-03-31T11:52:50.769Z,2.2
2023-03-31T11:58:38.654Z,1.8
2023-03-31T12:04:29.127Z,1.8
2023-03-31T12:10:21.211Z,2
2023-03-31T12:16:08.437Z,1.9
2023-03-31T12:21:55.811Z,1.6
2023-03-31T12:27:41.527Z,1.9
2023-03-31T12:33:29.777Z,1.6
2023-03-31T12:39:24.521Z,1.8
2023-03-31T12:45:14.578Z,1.7
2023-03-31T12:51:15.161Z,1.7
2023-03-31T12:57:15.401Z,1.5
2023-03-31T13:03:13.186Z,1.4
2023-03-31T13:08:59.241Z,1.7
2023-03-31T13:14:45.594Z,1.6
2023-03-31T13:20:35.357Z,1.4
2023-03-31T13:26:36.717Z,1.3
2023-03-31T13:32:26.558Z,1.5
2023-03-31T13:38:16.773Z,1.3
2023-03-31T13:44:13.275Z,1.6
2023-03-31T13:50:04.314Z,1.3
2023-03-31T13:56:07.090Z,1.5
2023-03-31T14:02:05.095Z,1.4
2023-03-31T14:07:56.919Z,1.3
2023-03-31T14:13:41.956Z,1.1
2023-03-31T14:19:34.402Z,1.1
2023-03-31T14:25:27.320Z,0.7
2023-03-31T14:31:16.814Z,0.7
2023-03-31T14:37:01.611Z,0.9
2023-03-31T14:42:49.580Z,0.8
2023-03-31T14:48:34.456Z,0.9
2023-03-31T14:54:22.217Z,0.9
2023-03-31T15:00:08.515Z,0.8
2023-03-31T15:05:53.190Z,0.7
2023-03-31T15:11:37.289Z,1.1
2023-03-31T15:17:25.833Z,0.9
2023-03-31T15:23:16.301Z,1
2023-03-31T15:29:04.477Z,1
2023-03-31T15:34:48.830Z,1.1
2023-03-31T15:40:34.721Z,0.7
2023-03-31T15:46:27.108Z,1
2023-03-31T15:52:17.291Z,1
2023-03-31T15:58:02.245Z,1.1
2023-03-31T16:03:47.660Z,0.9
2023-03-31T16:09:37.011Z,1.3
2023-03-31T16:15:27.084Z,1
2023-03-31T16:21:11.322Z,1.1
2023-03-31T16:27:02.649Z,1
2023-03-31T16:32:54.879Z,1.1
2023-03-31T16:38:38.941Z,1
2023-03-31T16:44:23.110Z,1.1
2023-03-31T16:50:07.868Z,1.1
2023-03-31T16:55:53.109Z,1.1
2023-03-31T17:01:37.574Z,1.2
2023-03-31T17:07:23.749Z,1.1
2023-03-31T17:13:08.240Z,1.2
2023-03-31T17:18:52.208Z,1.4
2023-03-31T17:24:36.361Z,1.3
2023-03-31T17:30:20.472Z,1.2
2023-03-31T17:36:04.525Z,1.1
2023-03-31T17:41:48.587Z,1.3
2023-03-31T17:47:32.855Z,1.3
2023-03-31T17:53:17.917Z,1.2
2023-03-31T17:59:01.944Z,4.3
2023-03-31T18:04:46.240Z,17
2023-03-31T18:10:30.298Z,13.1
2023-03-31T18:16:14.757Z,9.7
2023-03-31T18:21:58.690Z,8.5
2023-03-31T18:27:42.723Z,9.5
2023-03-31T18:33:27.166Z,9.5
2023-03-31T18:39:11.322Z,8.2
2023-03-31T18:44:55.361Z,6.7
2023-03-31T18:50:39.181Z,6.1
2023-03-31T18:56:23.275Z,7.1
2023-03-31T19:02:07.340Z,5.2
2023-03-31T19:07:51.471Z,4.8
2023-03-31T19:13:35.463Z,3.9
2023-03-31T19:19:20.516Z,3.6
2023-03-31T19:25:04.670Z,2.9
2023-03-31T19:30:49.423Z,3.1
2023-03-31T19:36:33.282Z,2.7
2023-03-31T19:42:19.345Z,2.2
2023-03-31T19:48:03.417Z,2
2023-03-31T19:53:47.698Z,1.9
2023-03-31T19:59:31.728Z,1.8
2023-03-31T20:05:15.857Z,1.9
2023-03-31T20:11:05.960Z,1.6
2023-03-31T20:16:50.540Z,1.6
2023-03-31T20:22:34.459Z,1.3
2023-03-31T20:28:18.377Z,1.6
2023-03-31T20:34:02.513Z,1.5
2023-03-31T20:39:46.504Z,1.6
2023-03-31T20:45:31.370Z,1.5
2023-03-31T20:51:16.818Z,1.7
2023-03-31T20:57:00.957Z,1.6
2023-03-31T21:02:45.425Z,1.7
2023-03-31T21:08:29.516Z,1.2
2023-03-31T21:14:14.705Z,1.2
2023-03-31T21:19:58.763Z,1.5
2023-03-31T21:25:42.703Z,1.2
2023-03-31T21:31:27.613Z,1.1
2023-03-31T21:37:11.695Z,1.1
2023-03-31T21:42:55.650Z,1.1
2023-03-31T21:48:39.631Z,1.7
2023-03-31T21:54:23.593Z,1.3
2023-03-31T22:00:08.752Z,1.1
2023-03-31T22:05:52.761Z,1.3
2023-03-31T22:11:36.662Z,1.2
2023-03-31T22:17:20.981Z,1.1
2023-03-31T22:23:05.882Z,1.1
2023-03-31T22:28:50.464Z,1
2023-03-31T22:34:34.776Z,1.2
2023-03-31T22:40:18.846Z,1.2
2023-03-31T22:46:03.814Z,0.9
2023-03-31T22:51:48.006Z,1
2023-03-31T22:57:32.318Z,1.1
2023-03-31T23:03:16.598Z,0.9
2023-03-31T23:09:00.660Z,1
2023-03-31T23:14:44.619Z,1
2023-03-31T23:20:28.815Z,0.8
2023-03-31T23:26:12.757Z,0.9
2023-03-31T23:31:56.845Z,1.1
2023-03-31T23:37:41.049Z,0.9
2023-03-31T23:43:24.974Z,1
2023-03-31T23:49:09.142Z,0.9
2023-03-31T23:54:53.321Z,0.9
